Terminal Aerodrome Forecast
Issued by NWS Omaha/Valley, NE

Home | Current Version | Previous Version | Graphics & Text | Print | Product List | Glossary On
Versions: 1 2 3 4 5 6 7 8 9 10 11 12 13 14 15 16 17 18 19 20 21 22 23 24 25 26
000
FTUS43 KOAX 182320
TAFOFK
TAF
KOFK 182320Z 1900/1924 19006KT P6SM SKC
     FM190600 19009KT 5SM BR BKN060
     FM191000 18007KT 3SM BR OVC010
     FM191100 17007KT 1 1/2SM BR OVC008
     FM191800 17008KT P6SM OVC008=

USA.gov is the U.S. government's official web portal to all federal, state and local government web resources and services.